createdAt,value
2018-03-14T22:14:50.372Z,15.53
2018-03-14T22:17:34.043Z,16.60
2018-03-14T22:20:05.583Z,16.60
2018-03-14T22:22:42.169Z,17.20
2018-03-14T22:25:14.179Z,15.90
2018-03-14T22:27:43.282Z,15.47
2018-03-14T22:30:13.019Z,14.37
2018-03-14T22:32:42.262Z,16.33
2018-03-14T22:35:10.856Z,17.23
2018-03-14T22:37:44.964Z,16.03
2018-03-14T22:40:14.323Z,17.70
2018-03-14T22:42:43.663Z,18.57
2018-03-14T22:45:12.249Z,16.10
2018-03-14T22:47:40.833Z,16.47
2018-03-14T22:50:09.207Z,17.13
2018-03-14T22:52:38.715Z,14.40
2018-03-14T22:55:07.299Z,14.43
2018-03-14T22:57:35.938Z,13.87
2018-03-14T23:00:20.648Z,13.97
2018-03-14T23:02:49.535Z,16.27
2018-03-14T23:05:18.064Z,16.17
2018-03-14T23:07:47.313Z,15.20
2018-03-14T23:10:15.804Z,16.10
2018-03-14T23:12:44.381Z,16.03
2018-03-14T23:15:19.316Z,17.07
2018-03-14T23:17:47.790Z,17.03
2018-03-14T23:20:28.190Z,16.53
2018-03-14T23:22:57.510Z,16.90
2018-03-14T23:25:28.616Z,18.60
2018-03-14T23:27:57.311Z,18.60
2018-03-14T23:30:25.805Z,20.27
2018-03-14T23:32:54.248Z,19.00
2018-03-14T23:35:22.765Z,17.97
2018-03-14T23:37:58.639Z,15.80
2018-03-14T23:40:29.522Z,15.37
2018-03-14T23:43:00.350Z,15.57
2018-03-14T23:45:29.704Z,16.90
2018-03-14T23:47:58.670Z,18.43
2018-03-14T23:50:29.742Z,19.67
2018-03-14T23:52:59.552Z,20.87
2018-03-14T23:55:28.997Z,19.80
2018-03-14T23:57:58.207Z,17.73
